createdAt,value
2018-08-09T00:02:11.999Z,56.20
2018-08-09T00:04:44.025Z,56.10
2018-08-09T00:07:15.855Z,56.20
2018-08-09T00:09:47.361Z,55.90
2018-08-09T00:12:19.372Z,56.20
2018-08-09T00:14:50.890Z,55.80
2018-08-09T00:17:22.244Z,56.00
2018-08-09T00:19:53.533Z,56.10
2018-08-09T00:22:25.054Z,56.10
2018-08-09T00:24:57.377Z,56.00
2018-08-09T00:27:29.240Z,56.00
2018-08-09T00:30:00.419Z,56.00
2018-08-09T00:32:33.820Z,55.90
2018-08-09T00:35:05.601Z,56.10
2018-08-09T00:37:36.959Z,55.80
2018-08-09T00:40:08.999Z,55.70
2018-08-09T00:42:41.152Z,56.10
2018-08-09T00:45:15.614Z,55.80
2018-08-09T00:47:46.957Z,56.00
2018-08-09T00:50:18.106Z,55.80
2018-08-09T00:52:54.039Z,55.50
2018-08-09T00:55:25.369Z,55.80
2018-08-09T00:57:57.037Z,55.80
2018-08-09T01:00:28.289Z,56.00
2018-08-09T01:03:01.085Z,55.90
2018-08-09T01:05:33.519Z,55.70
2018-08-09T01:08:05.016Z,55.80
2018-08-09T01:10:36.491Z,55.80
2018-08-09T01:13:12.592Z,55.70
2018-08-09T01:15:43.809Z,56.00
2018-08-09T01:18:15.348Z,56.10
2018-08-09T01:20:46.899Z,56.00
2018-08-09T01:23:19.088Z,56.00
2018-08-09T01:25:50.929Z,56.10
2018-08-09T01:28:23.026Z,55.90
2018-08-09T01:30:54.609Z,56.00
2018-08-09T01:33:26.588Z,56.10
2018-08-09T01:35:58.168Z,56.20
2018-08-09T01:38:29.706Z,56.20
2018-08-09T01:41:01.316Z,56.00
2018-08-09T01:43:43.632Z,56.10
2018-08-09T01:46:15.286Z,56.70
2018-08-09T01:48:47.143Z,56.30
2018-08-09T01:51:18.860Z,56.30
2018-08-09T01:53:50.643Z,56.40
2018-08-09T01:56:22.216Z,56.30
2018-08-09T01:58:54.471Z,56.50
2018-08-09T02:01:27.139Z,56.50
2018-08-09T02:03:58.755Z,56.60
2018-08-09T02:06:30.513Z,56.60
2018-08-09T02:09:06.915Z,56.60
2018-08-09T02:11:38.399Z,56.70
2018-08-09T02:14:09.767Z,56.70
2018-08-09T02:16:41.828Z,57.00
2018-08-09T02:19:13.184Z,56.80
2018-08-09T02:21:45.875Z,56.90
2018-08-09T02:24:17.380Z,56.90
2018-08-09T02:26:48.805Z,56.80
2018-08-09T02:29:21.472Z,56.90
2018-08-09T02:31:53.274Z,57.00
2018-08-09T02:34:25.113Z,57.10
2018-08-09T02:36:57.173Z,57.00
2018-08-09T02:39:28.473Z,57.20
2018-08-09T02:41:59.714Z,57.00
2018-08-09T02:44:31.157Z,56.90
2018-08-09T02:47:02.684Z,57.00
2018-08-09T02:49:33.622Z,57.10
2018-08-09T02:52:06.214Z,57.10
2018-08-09T02:54:38.527Z,57.20
2018-08-09T02:57:09.787Z,57.20
2018-08-09T02:59:41.188Z,57.30
2018-08-09T03:02:12.760Z,57.20
2018-08-09T03:04:44.701Z,57.30
2018-08-09T03:07:16.895Z,57.30
2018-08-09T03:09:48.908Z,57.20
2018-08-09T03:12:20.403Z,57.50
2018-08-09T03:14:52.584Z,57.40
2018-08-09T03:17:24.002Z,57.40
2018-08-09T03:19:54.963Z,57.60
2018-08-09T03:22:26.303Z,57.50
2018-08-09T03:24:58.372Z,57.40
2018-08-09T03:27:30.000Z,57.60
2018-08-09T03:30:01.684Z,57.50
2018-08-09T03:32:32.957Z,57.70
2018-08-09T03:35:04.066Z,57.70
2018-08-09T03:37:35.141Z,57.60
2018-08-09T03:40:06.713Z,57.60
2018-08-09T03:42:38.700Z,57.70
2018-08-09T03:45:10.036Z,57.60
2018-08-09T03:47:41.231Z,57.60
2018-08-09T03:50:12.523Z,57.60
2018-08-09T03:52:44.863Z,57.70
2018-08-09T03:55:16.783Z,57.70
2018-08-09T03:57:47.860Z,57.60
2018-08-09T04:00:54.967Z,57.80
2018-08-09T04:03:40.140Z,57.70
2018-08-09T04:06:11.980Z,57.80
2018-08-09T04:08:43.544Z,58.00
2018-08-09T04:11:14.967Z,57.90
2018-08-09T04:13:46.062Z,57.90
2018-08-09T04:16:17.244Z,58.50
2018-08-09T04:18:49.316Z,57.90
2018-08-09T04:21:21.561Z,57.90
2018-08-09T04:23:53.709Z,57.90
2018-08-09T04:26:25.186Z,58.10
2018-08-09T04:28:56.784Z,58.00
2018-08-09T04:31:29.156Z,58.00
2018-08-09T04:34:00.974Z,58.00
2018-08-09T04:36:32.088Z,58.10
2018-08-09T04:39:04.221Z,58.10
2018-08-09T04:41:35.613Z,58.10
2018-08-09T04:44:06.657Z,58.10
2018-08-09T04:46:38.199Z,58.30
2018-08-09T04:49:10.284Z,58.20
2018-08-09T04:51:41.841Z,58.30
2018-08-09T04:54:13.091Z,58.30
2018-08-09T04:56:44.379Z,58.30
2018-08-09T04:59:15.955Z,58.40
2018-08-09T05:01:47.321Z,58.30
2018-08-09T05:04:18.545Z,58.40
2018-08-09T05:06:49.678Z,58.40
2018-08-09T05:09:21.024Z,58.50
2018-08-09T05:11:52.228Z,58.50
2018-08-09T05:14:23.597Z,58.50
2018-08-09T05:16:55.233Z,58.50
2018-08-09T05:19:26.719Z,58.50
2018-08-09T05:21:58.406Z,58.50
2018-08-09T05:24:30.388Z,58.60
2018-08-09T05:27:01.712Z,58.70
2018-08-09T05:29:34.159Z,58.70
2018-08-09T05:32:05.983Z,58.90
2018-08-09T05:34:37.761Z,59.00
2018-08-09T05:37:08.985Z,58.90
2018-08-09T05:39:40.551Z,59.60
2018-08-09T05:42:12.094Z,59.20
2018-08-09T05:44:43.502Z,59.20
2018-08-09T05:47:14.700Z,59.40
2018-08-09T05:49:46.410Z,59.30
2018-08-09T05:52:17.993Z,59.20
2018-08-09T05:54:49.503Z,59.20
2018-08-09T05:57:21.263Z,59.20
2018-08-09T05:59:52.755Z,59.30
2018-08-09T06:02:26.680Z,59.30
2018-08-09T06:04:57.760Z,59.30
2018-08-09T06:07:29.556Z,59.40
2018-08-09T06:10:00.704Z,59.50
2018-08-09T06:12:32.788Z,59.50
2018-08-09T06:15:04.576Z,59.50
2018-08-09T06:17:35.970Z,59.60
2018-08-09T06:20:07.845Z,60.00
2018-08-09T06:22:39.790Z,59.70
2018-08-09T06:25:11.098Z,59.80
2018-08-09T06:27:44.045Z,59.70
2018-08-09T06:30:15.829Z,59.80
2018-08-09T06:32:47.152Z,59.80
2018-08-09T06:35:18.639Z,59.90
2018-08-09T06:37:51.240Z,60.00
2018-08-09T06:40:23.250Z,60.10
2018-08-09T06:42:55.144Z,60.30
2018-08-09T06:45:27.077Z,60.30
2018-08-09T06:48:04.491Z,60.30
2018-08-09T06:50:35.964Z,60.40
2018-08-09T06:53:08.629Z,60.40
2018-08-09T06:55:41.157Z,60.50
2018-08-09T06:58:13.342Z,60.50
2018-08-09T07:00:45.333Z,60.50
2018-08-09T07:03:17.280Z,60.40
2018-08-09T07:05:50.187Z,60.50
2018-08-09T07:08:21.514Z,60.50
2018-08-09T07:10:53.205Z,60.70
2018-08-09T07:13:24.564Z,60.60
2018-08-09T07:15:56.396Z,60.50
2018-08-09T07:18:28.054Z,60.50
2018-08-09T07:20:59.672Z,60.50
2018-08-09T07:23:31.519Z,61.30
2018-08-09T07:26:04.240Z,60.70
2018-08-09T07:28:35.413Z,60.70
2018-08-09T07:31:07.749Z,60.80
2018-08-09T07:33:38.747Z,60.70
2018-08-09T07:36:10.086Z,61.00
2018-08-09T07:38:42.503Z,60.80
2018-08-09T07:41:14.657Z,60.70
2018-08-09T07:43:46.993Z,60.80
2018-08-09T07:46:18.890Z,60.50
2018-08-09T07:48:50.458Z,60.60
2018-08-09T07:51:21.731Z,60.40
2018-08-09T07:53:53.549Z,60.40
2018-08-09T07:56:25.370Z,60.50
2018-08-09T07:58:57.448Z,60.50
2018-08-09T08:01:29.218Z,60.50
2018-08-09T08:04:01.076Z,60.40
2018-08-09T08:06:33.884Z,60.30
2018-08-09T08:09:08.917Z,60.20
2018-08-09T08:11:40.850Z,60.20
2018-08-09T08:14:13.566Z,60.10
2018-08-09T08:16:44.749Z,60.20
2018-08-09T08:19:16.205Z,60.10
2018-08-09T08:21:47.997Z,59.70
2018-08-09T08:24:19.983Z,59.90
2018-08-09T08:26:52.131Z,59.80
2018-08-09T08:29:23.880Z,59.70
2018-08-09T08:31:55.864Z,59.60
2018-08-09T08:34:28.691Z,59.60
2018-08-09T08:37:00.274Z,59.30
2018-08-09T08:39:31.941Z,59.20
2018-08-09T08:42:03.866Z,59.30
2018-08-09T08:44:35.872Z,59.20
2018-08-09T08:47:07.685Z,59.00
2018-08-09T08:49:39.508Z,58.90
2018-08-09T08:52:12.306Z,58.90
2018-08-09T08:54:44.840Z,58.90
2018-08-09T08:57:16.868Z,58.90
2018-08-09T08:59:48.728Z,58.90
2018-08-09T09:02:20.178Z,58.40
2018-08-09T09:04:52.836Z,58.60
2018-08-09T09:07:24.793Z,58.70
2018-08-09T09:09:57.528Z,59.20
2018-08-09T09:12:30.740Z,58.60
2018-08-09T09:15:02.852Z,56.90
2018-08-09T09:17:34.439Z,57.10
2018-08-09T09:20:08.320Z,56.10
2018-08-09T09:22:40.081Z,55.70
2018-08-09T09:25:12.202Z,55.60
2018-08-09T09:27:44.583Z,55.60
2018-08-09T09:30:18.834Z,56.50
2018-08-09T09:32:51.761Z,56.00
2018-08-09T09:35:23.126Z,55.20
2018-08-09T09:37:54.512Z,54.90
2018-08-09T09:40:26.160Z,55.00
2018-08-09T09:42:57.589Z,55.10
2018-08-09T09:45:30.191Z,54.70
2018-08-09T09:48:02.057Z,55.20
2018-08-09T09:50:33.603Z,53.00
2018-08-09T09:53:05.458Z,53.00
2018-08-09T09:55:38.139Z,52.80
2018-08-09T09:58:10.708Z,52.90
2018-08-09T10:00:46.872Z,53.20
2018-08-09T10:03:18.377Z,53.70
2018-08-09T10:05:50.088Z,53.60
2018-08-09T10:08:21.731Z,52.00
2018-08-09T10:10:54.787Z,52.60
2018-08-09T10:13:27.325Z,52.80
2018-08-09T10:15:59.067Z,52.70
2018-08-09T10:18:30.836Z,52.30
2018-08-09T10:21:03.412Z,53.50
2018-08-09T10:23:35.620Z,52.50
2018-08-09T10:26:07.225Z,52.50
2018-08-09T10:28:39.440Z,52.70
2018-08-09T10:31:11.049Z,53.20
2018-08-09T10:33:42.937Z,53.00
2018-08-09T10:36:16.334Z,52.90
2018-08-09T10:38:48.227Z,52.40
2018-08-09T10:41:20.582Z,53.00
2018-08-09T10:43:53.374Z,52.80
2018-08-09T10:46:25.246Z,52.60
2018-08-09T10:48:56.493Z,52.40
2018-08-09T10:51:28.855Z,52.90
2018-08-09T10:54:00.211Z,52.40
2018-08-09T10:56:32.057Z,53.10
2018-08-09T10:59:04.449Z,52.70
2018-08-09T11:01:36.623Z,52.70
2018-08-09T11:04:10.471Z,52.40
2018-08-09T11:06:42.012Z,52.80
2018-08-09T11:09:13.845Z,53.30
2018-08-09T11:11:45.724Z,53.40
2018-08-09T11:14:17.079Z,53.50
2018-08-09T11:16:48.918Z,53.60
2018-08-09T11:19:22.492Z,53.60
2018-08-09T11:21:55.206Z,53.50
2018-08-09T11:24:26.804Z,53.50
2018-08-09T11:26:58.194Z,53.80
2018-08-09T11:29:30.598Z,53.60
2018-08-09T11:32:02.152Z,53.50
2018-08-09T11:34:35.231Z,53.30
2018-08-09T11:37:06.784Z,52.60
2018-08-09T11:39:39.360Z,53.20
2018-08-09T11:42:11.347Z,52.90
2018-08-09T11:44:45.254Z,53.10
2018-08-09T11:47:17.596Z,53.20
2018-08-09T11:49:49.224Z,53.20
2018-08-09T11:52:21.126Z,53.40
2018-08-09T11:54:53.937Z,53.40
2018-08-09T11:57:25.800Z,53.70
2018-08-09T11:59:58.001Z,53.70
2018-08-09T12:02:30.504Z,53.70
2018-08-09T12:05:03.647Z,53.30
2018-08-09T12:07:35.048Z,53.90
2018-08-09T12:10:06.776Z,54.00
2018-08-09T12:12:39.242Z,54.20
2018-08-09T12:15:11.375Z,54.20
2018-08-09T12:17:45.023Z,54.30
2018-08-09T12:20:26.168Z,55.20
2018-08-09T12:22:58.692Z,54.70
2018-08-09T12:25:31.403Z,54.70
2018-08-09T12:28:04.275Z,54.80
2018-08-09T12:30:36.479Z,54.80
2018-08-09T12:33:18.310Z,54.90
2018-08-09T12:35:50.492Z,54.90
2018-08-09T12:38:22.073Z,54.80
2018-08-09T12:40:54.639Z,55.00
2018-08-09T12:43:26.417Z,55.00
2018-08-09T12:45:58.181Z,54.90
2018-08-09T12:48:30.074Z,55.00
2018-08-09T12:51:04.106Z,54.80
2018-08-09T12:53:37.073Z,55.10
2018-08-09T12:56:09.184Z,55.10
2018-08-09T12:58:41.023Z,55.20
2018-08-09T13:01:12.873Z,55.20
2018-08-09T13:03:45.815Z,55.40
2018-08-09T13:06:17.559Z,55.70
2018-08-09T13:08:50.627Z,55.80
2018-08-09T13:11:23.773Z,56.00
2018-08-09T13:13:55.619Z,56.00
2018-08-09T13:16:30.302Z,56.20
2018-08-09T13:19:02.852Z,56.30
2018-08-09T13:21:35.516Z,56.30
2018-08-09T13:24:07.014Z,56.40
2018-08-09T13:26:39.093Z,56.30
2018-08-09T13:29:11.092Z,56.30
2018-08-09T13:31:43.588Z,56.30
2018-08-09T13:34:16.359Z,56.40
2018-08-09T13:36:48.573Z,56.30
2018-08-09T13:39:21.216Z,56.30
2018-08-09T13:41:53.611Z,56.30
2018-08-09T13:44:26.793Z,56.20
2018-08-09T13:46:58.860Z,56.20
2018-08-09T13:49:31.785Z,56.30
2018-08-09T13:52:05.335Z,56.00
2018-08-09T13:54:36.463Z,56.20
2018-08-09T13:57:08.169Z,56.30
2018-08-09T13:59:41.640Z,56.20
2018-08-09T14:02:14.492Z,56.30
2018-08-09T14:04:46.588Z,56.20
2018-08-09T14:07:18.775Z,56.30
2018-08-09T14:09:51.788Z,56.20
2018-08-09T14:12:24.322Z,56.40
2018-08-09T14:14:55.902Z,56.40
2018-08-09T14:17:27.913Z,56.40
2018-08-09T14:20:02.053Z,56.40
2018-08-09T14:22:34.671Z,56.30
2018-08-09T14:25:07.017Z,56.30
2018-08-09T14:27:39.717Z,56.40
2018-08-09T14:30:17.052Z,56.40
2018-08-09T14:32:49.247Z,56.40
2018-08-09T14:35:21.179Z,56.40
2018-08-09T14:37:53.091Z,56.40
2018-08-09T14:40:25.839Z,56.40
2018-08-09T14:42:57.721Z,56.40
2018-08-09T14:45:30.260Z,56.40
2018-08-09T14:48:02.870Z,56.50
2018-08-09T14:50:35.214Z,56.50
2018-08-09T14:53:07.303Z,56.40
2018-08-09T14:55:39.312Z,56.60
2018-08-09T14:58:11.951Z,56.90
2018-08-09T15:00:44.597Z,57.30
2018-08-09T15:03:17.892Z,58.20
2018-08-09T15:05:50.092Z,59.00
2018-08-09T15:08:22.084Z,58.70
2018-08-09T15:10:54.591Z,59.20
2018-08-09T15:13:26.472Z,59.50
2018-08-09T15:15:58.947Z,59.60
2018-08-09T15:18:32.656Z,59.30
2018-08-09T15:21:04.688Z,60.00
2018-08-09T15:23:37.773Z,60.20
2018-08-09T15:26:12.629Z,59.90
2018-08-09T15:28:45.011Z,59.90
2018-08-09T15:31:16.854Z,59.90
2018-08-09T15:33:48.722Z,60.30
2018-08-09T15:36:21.930Z,59.90
2018-08-09T15:38:54.926Z,59.80
2018-08-09T15:41:27.574Z,60.00
2018-08-09T15:43:58.655Z,60.30
2018-08-09T15:46:30.295Z,60.20
2018-08-09T15:49:03.061Z,59.80
2018-08-09T15:51:35.537Z,59.90
2018-08-09T15:54:07.673Z,59.70
2018-08-09T15:56:39.364Z,59.50
2018-08-09T15:59:12.043Z,59.50
2018-08-09T16:01:45.208Z,59.90
2018-08-09T16:04:16.678Z,60.00
2018-08-09T16:06:48.402Z,60.20
2018-08-09T16:09:20.289Z,60.30
2018-08-09T16:11:52.727Z,60.10
2018-08-09T16:14:24.602Z,60.30
2018-08-09T16:16:58.258Z,60.30
2018-08-09T16:19:29.700Z,60.50
2018-08-09T16:22:02.508Z,60.60
2018-08-09T16:24:34.979Z,60.80
2018-08-09T16:27:07.545Z,61.20
2018-08-09T16:29:40.482Z,61.20
2018-08-09T16:32:14.262Z,61.10
2018-08-09T16:34:47.577Z,61.30
2018-08-09T16:37:22.236Z,61.30
2018-08-09T16:39:54.548Z,61.40
2018-08-09T16:42:30.762Z,61.40
2018-08-09T16:45:02.688Z,61.40
2018-08-09T16:47:34.775Z,61.30
2018-08-09T16:50:08.383Z,61.40
2018-08-09T16:52:39.950Z,61.40
2018-08-09T16:55:17.515Z,61.20
2018-08-09T16:57:54.699Z,61.20
2018-08-09T17:00:27.302Z,61.10
2018-08-09T17:02:59.626Z,61.10
2018-08-09T17:05:33.059Z,61.00
2018-08-09T17:08:05.839Z,61.00
2018-08-09T17:10:38.498Z,60.90
2018-08-09T17:13:10.385Z,60.80
2018-08-09T17:15:43.563Z,60.50
2018-08-09T17:18:18.178Z,60.70
2018-08-09T17:20:51.187Z,60.70
2018-08-09T17:23:26.587Z,60.60
2018-08-09T17:25:58.562Z,60.50
2018-08-09T17:28:31.193Z,60.30
2018-08-09T17:31:03.342Z,60.30
2018-08-09T17:33:35.982Z,60.20
2018-08-09T17:36:09.034Z,60.20
2018-08-09T17:38:40.499Z,60.00
2018-08-09T17:41:13.415Z,60.10
2018-08-09T17:43:48.916Z,60.10
2018-08-09T17:46:25.599Z,60.20
2018-08-09T17:48:58.516Z,60.10
2018-08-09T17:51:31.870Z,60.20
2018-08-09T17:54:03.920Z,60.30
2018-08-09T17:56:35.990Z,60.30
2018-08-09T17:59:07.369Z,60.30
2018-08-09T18:01:38.526Z,60.40
2018-08-09T18:04:10.569Z,60.30
2018-08-09T18:06:42.013Z,60.30
2018-08-09T18:09:15.410Z,60.30
2018-08-09T18:11:52.232Z,60.30
2018-08-09T18:14:24.455Z,60.40
2018-08-09T18:16:57.228Z,60.50
2018-08-09T18:19:29.687Z,60.50
2018-08-09T18:22:01.423Z,60.60
2018-08-09T18:24:32.750Z,60.70
2018-08-09T18:27:11.030Z,61.10
2018-08-09T18:29:43.914Z,62.00
2018-08-09T18:32:15.855Z,62.50
2018-08-09T18:34:56.873Z,62.30
2018-08-09T18:37:36.136Z,62.70
2018-08-09T18:40:10.694Z,62.90
2018-08-09T18:42:46.902Z,62.90
2018-08-09T18:45:19.672Z,63.20
2018-08-09T18:47:53.440Z,63.20
2018-08-09T18:50:29.455Z,63.40
2018-08-09T18:53:06.908Z,63.30
2018-08-09T18:55:40.388Z,63.40
2018-08-09T18:58:13.304Z,63.30
2018-08-09T19:00:46.299Z,63.40
2018-08-09T19:03:18.223Z,63.50
2018-08-09T19:05:50.599Z,63.50
2018-08-09T19:08:23.771Z,63.50
2018-08-09T19:10:56.816Z,63.60
2018-08-09T19:13:27.922Z,63.60
2018-08-09T19:16:00.982Z,63.70
2018-08-09T19:18:32.839Z,63.90
2018-08-09T19:21:06.681Z,64.10
2018-08-09T19:23:45.778Z,63.90
2018-08-09T19:26:20.678Z,64.10
2018-08-09T19:28:53.912Z,64.20
2018-08-09T19:31:27.324Z,64.30
2018-08-09T19:34:02.694Z,64.30
2018-08-09T19:36:35.402Z,64.30
2018-08-09T19:39:11.865Z,64.40
2018-08-09T19:41:44.544Z,64.40
2018-08-09T19:44:16.956Z,64.50
2018-08-09T19:46:48.927Z,64.50
2018-08-09T19:49:26.435Z,64.70
2018-08-09T19:51:59.834Z,64.60
2018-08-09T19:54:31.823Z,65.30
2018-08-09T19:57:03.661Z,64.30
2018-08-09T19:59:36.415Z,64.40
2018-08-09T20:02:09.182Z,64.60
2018-08-09T20:04:41.681Z,64.50
2018-08-09T20:07:14.310Z,64.40
2018-08-09T20:09:47.573Z,66.00
2018-08-09T20:12:21.416Z,68.30
2018-08-09T20:14:53.629Z,67.90
2018-08-09T20:17:25.809Z,67.00
2018-08-09T20:19:58.829Z,66.30
2018-08-09T20:22:31.041Z,66.00
2018-08-09T20:25:02.608Z,65.80
2018-08-09T20:27:34.569Z,65.70
2018-08-09T20:30:08.703Z,65.70
2018-08-09T20:32:42.144Z,65.60
2018-08-09T20:35:22.079Z,65.50
2018-08-09T20:37:55.913Z,65.50
2018-08-09T20:40:28.425Z,65.30
2018-08-09T20:43:01.629Z,65.10
2018-08-09T20:45:33.525Z,65.00
2018-08-09T20:48:06.064Z,65.10
2018-08-09T20:50:37.724Z,64.90
2018-08-09T20:53:10.911Z,65.00
2018-08-09T20:55:43.416Z,64.90
2018-08-09T20:58:15.627Z,64.80
2018-08-09T21:00:47.849Z,64.80
2018-08-09T21:03:20.123Z,64.90
2018-08-09T21:05:54.348Z,65.00
2018-08-09T21:08:27.182Z,65.00
2018-08-09T21:10:58.745Z,64.90
2018-08-09T21:13:30.977Z,64.90
2018-08-09T21:16:03.387Z,64.90
2018-08-09T21:18:35.898Z,64.90
2018-08-09T21:21:09.832Z,64.80
2018-08-09T21:23:43.697Z,64.60
2018-08-09T21:26:15.278Z,65.00
2018-08-09T21:28:47.551Z,64.90
2018-08-09T21:31:19.617Z,65.00
2018-08-09T21:33:52.399Z,64.70
2018-08-09T21:36:24.850Z,64.80
2018-08-09T21:38:56.608Z,64.70
2018-08-09T21:41:29.033Z,65.20
2018-08-09T21:44:00.537Z,65.70
2018-08-09T21:46:32.222Z,65.30
2018-08-09T21:49:03.947Z,65.30
2018-08-09T21:51:36.929Z,65.70
2018-08-09T21:54:09.796Z,65.60
2018-08-09T21:56:42.179Z,65.50
2018-08-09T21:59:15.734Z,65.50
2018-08-09T22:01:47.414Z,65.60
2018-08-09T22:04:19.908Z,65.50
2018-08-09T22:06:56.416Z,65.50
2018-08-09T22:09:33.044Z,65.50
2018-08-09T22:12:11.367Z,65.50
2018-08-09T22:16:56.319Z,65.40
2018-08-09T22:19:33.764Z,66.20
2018-08-09T22:22:09.902Z,65.50
2018-08-09T22:24:42.381Z,65.70
2018-08-09T22:27:16.732Z,65.50
2018-08-09T22:29:48.569Z,65.60
2018-08-09T22:32:20.426Z,65.50
2018-08-09T22:34:52.026Z,65.60
2018-08-09T22:37:23.686Z,65.70
2018-08-09T22:39:56.180Z,65.80
2018-08-09T22:42:27.852Z,65.90
2018-08-09T22:44:59.137Z,66.00
2018-08-09T22:47:33.130Z,65.90
2018-08-09T22:50:05.235Z,66.00
2018-08-09T22:52:37.112Z,65.90
2018-08-09T22:55:08.924Z,66.00
2018-08-09T22:57:40.675Z,66.20
2018-08-09T23:00:21.357Z,66.30
2018-08-09T23:02:53.735Z,66.40
2018-08-09T23:05:26.800Z,66.30
2018-08-09T23:07:58.892Z,66.30
2018-08-09T23:10:31.344Z,66.40
2018-08-09T23:13:02.906Z,66.70
2018-08-09T23:15:34.866Z,66.50
2018-08-09T23:18:07.407Z,66.60
2018-08-09T23:20:39.595Z,66.60
2018-08-09T23:23:11.627Z,66.70
2018-08-09T23:25:44.104Z,67.10
2018-08-09T23:28:16.370Z,67.50
2018-08-09T23:30:49.899Z,67.20
2018-08-09T23:33:24.664Z,67.20
2018-08-09T23:35:57.705Z,67.10
2018-08-09T23:38:48.203Z,67.20
2018-08-09T23:41:19.468Z,67.10
2018-08-09T23:43:50.782Z,67.20
2018-08-09T23:46:22.502Z,67.30
2018-08-09T23:48:54.078Z,67.60
2018-08-09T23:51:26.038Z,67.30
2018-08-09T23:53:58.442Z,67.50
2018-08-09T23:56:30.997Z,67.60
2018-08-09T23:59:02.620Z,67.60
